Time;durP1;ratioP1;P1;durP2;ratioP2;P2;SDS_P1;SDS_P2;PMS_P1;PMS_P2;Temp;Humidity;BMP_temperature;BMP_pressure;BME280_temperature;BME280_humidity;BME280_pressure;Samples;Min_cycle;Max_cycle;Signal;HPM_P1;HPM_P2
2023/04/14 00:00:41;;;;;;;;;5.33;2.67;;;;;8.86;100.00;100455.16;5009972;28;46014;-74
2023/04/14 00:03:07;;;;;;;;;4.67;3.67;;;;;8.97;100.00;100471.81;5008981;28;45531;-76
2023/04/14 00:05:33;;;;;;;;;4.00;2.00;;;;;9.04;100.00;100476.47;5009641;28;46011;-75
2023/04/14 00:08:00;;;;;;;;;2.00;1.00;;;;;9.09;100.00;100474.81;4997139;28;45818;-73
2023/04/14 00:10:26;;;;;;;;;2.00;2.00;;;;;9.15;100.00;100468.50;4991868;28;45613;-75
2023/04/14 00:12:54;;;;;;;;;3.67;2.00;;;;;9.20;100.00;100462.41;5008810;28;46055;-74
2023/04/14 00:15:20;;;;;;;;;2.33;1.00;;;;;9.16;100.00;100431.03;4974250;28;48399;-74
2023/04/14 00:17:45;;;;;;;;;2.00;2.00;;;;;9.37;100.00;100451.91;5006899;28;45946;-75
2023/04/14 00:20:10;;;;;;;;;1.00;1.00;;;;;9.41;100.00;100450.47;5007123;28;45804;-74
2023/04/14 00:22:36;;;;;;;;;2.67;1.67;;;;;9.45;100.00;100448.16;5001121;28;45897;-74
2023/04/14 00:25:02;;;;;;;;;4.67;3.00;;;;;9.50;100.00;100451.09;5007733;28;46578;-73
2023/04/14 00:27:28;;;;;;;;;1.00;1.00;;;;;9.53;100.00;100451.50;5010379;28;45668;-76
2023/04/14 00:29:53;;;;;;;;;0.67;0.67;;;;;9.55;100.00;100448.59;5008543;28;45747;-78
2023/04/14 00:32:19;;;;;;;;;2.00;2.00;;;;;9.59;100.00;100447.09;5009790;28;45933;-74
2023/04/14 00:34:44;;;;;;;;;3.00;1.00;;;;;9.46;100.00;100430.66;5010230;28;46081;-74
2023/04/14 00:37:10;;;;;;;;;0.00;0.00;;;;;9.63;100.00;100453.03;5005021;28;45472;-76
2023/04/14 00:39:35;;;;;;;;;1.00;1.00;;;;;9.64;100.00;100447.34;5010022;28;45388;-75
2023/04/14 00:42:01;;;;;;;;;0.33;0.33;;;;;9.64;100.00;100444.59;5009747;28;46210;-75
2023/04/14 00:44:27;;;;;;;;;0.00;0.00;;;;;9.61;100.00;100438.69;5009910;28;45874;-76
2023/04/14 00:46:53;;;;;;;;;2.00;1.00;;;;;9.64;100.00;100443.72;4992050;28;45596;-76
2023/04/14 00:49:19;;;;;;;;;1.00;1.00;;;;;9.63;100.00;100439.31;5010921;28;46281;-75
2023/04/14 00:51:45;;;;;;;;;0.00;0.00;;;;;9.51;100.00;100423.50;5012808;28;45783;-75
2023/04/14 00:54:12;;;;;;;;;1.33;1.33;;;;;9.63;100.00;100426.47;5012955;28;46366;-76
2023/04/14 00:56:37;;;;;;;;;2.67;2.67;;;;;9.54;100.00;100419.53;4994714;28;45639;-75
2023/04/14 00:59:05;;;;;;;;;3.00;1.00;;;;;9.59;100.00;100441.63;4995564;28;45683;-75
2023/04/14 01:01:35;;;;;;;;;2.33;2.33;;;;;9.57;100.00;100435.53;4995454;28;45908;-75
2023/04/14 01:04:01;;;;;;;;;1.33;1.33;;;;;9.49;100.00;100428.38;5010651;28;46592;-75
2023/04/14 01:06:27;;;;;;;;;1.00;0.00;;;;;9.45;100.00;100437.22;5011112;28;45472;-77
2023/04/14 01:08:53;;;;;;;;;2.33;1.67;;;;;9.39;100.00;100429.84;4994955;28;45925;-75
2023/04/14 01:11:44;;;;;;;;;2.00;2.00;;;;;9.28;100.00;100423.06;5013568;28;45687;-76
2023/04/14 01:14:18;;;;;;;;;1.00;1.00;;;;;9.18;100.00;100424.31;5003071;28;45770;-75
2023/04/14 01:16:48;;;;;;;;;2.67;1.00;;;;;9.12;100.00;100422.41;4992313;28;45801;-75
2023/04/14 01:19:35;;;;;;;;;1.00;1.00;;;;;9.11;100.00;100430.84;5013110;28;45798;-77
2023/04/14 01:22:05;;;;;;;;;3.00;3.00;;;;;9.02;100.00;100428.28;5012814;28;45454;-76
2023/04/14 01:24:51;;;;;;;;;1.33;1.33;;;;;8.99;100.00;100436.91;5005700;28;45451;-76
2023/04/14 01:27:44;;;;;;;;;1.00;1.00;;;;;8.94;100.00;100439.41;5012919;28;45755;-75
2023/04/14 01:30:32;;;;;;;;;2.00;2.00;;;;;8.88;100.00;100433.91;5010328;28;45958;-76
2023/04/14 01:33:04;;;;;;;;;1.00;1.00;;;;;8.80;100.00;100430.34;5012642;28;45486;-75
2023/04/14 01:35:38;;;;;;;;;1.00;1.00;;;;;8.69;100.00;100416.41;5013024;28;45658;-75
2023/04/14 01:38:09;;;;;;;;;1.67;1.00;;;;;8.77;100.00;100432.63;5011408;28;45855;-76
2023/04/14 01:40:36;;;;;;;;;0.00;0.00;;;;;8.59;100.00;100408.59;5013407;28;45858;-76
2023/04/14 01:43:07;;;;;;;;;1.00;1.00;;;;;8.71;100.00;100430.72;5013236;28;45509;-76
2023/04/14 01:45:40;;;;;;;;;1.67;1.67;;;;;8.68;100.00;100433.84;5012101;28;45474;-74
2023/04/14 01:48:06;;;;;;;;;1.00;0.00;;;;;8.63;100.00;100418.06;5012539;28;45382;-75
2023/04/14 01:50:34;;;;;;;;;1.67;1.67;;;;;8.61;100.00;100423.75;5012712;28;45628;-75
2023/04/14 01:53:03;;;;;;;;;1.00;1.00;;;;;8.57;100.00;100430.66;5012952;28;45728;-75
2023/04/14 01:55:34;;;;;;;;;3.00;2.00;;;;;8.54;100.00;100422.88;4994044;28;46076;-75
2023/04/14 01:58:01;;;;;;;;;1.00;1.00;;;;;8.52;100.00;100424.09;5008801;28;45357;-75
2023/04/14 02:00:27;;;;;;;;;3.33;1.00;;;;;8.42;100.00;100408.91;4993903;28;45466;-76
2023/04/14 02:02:54;;;;;;;;;0.00;0.00;;;;;8.45;100.00;100419.44;4999579;28;45421;-75
2023/04/14 02:05:21;;;;;;;;;1.00;1.00;;;;;8.43;100.00;100427.00;5010838;28;45741;-75
2023/04/14 02:07:50;;;;;;;;;1.00;1.00;;;;;8.41;100.00;100428.22;5015905;28;45758;-74
2023/04/14 02:10:19;;;;;;;;;3.67;1.67;;;;;8.38;100.00;100423.19;5011329;28;45675;-74
2023/04/14 02:12:47;;;;;;;;;1.00;1.00;;;;;8.28;100.00;100415.38;4992091;28;45587;-75
2023/04/14 02:15:16;;;;;;;;;1.67;1.67;;;;;8.30;100.00;100433.22;4984833;28;46171;-74
2023/04/14 02:17:42;;;;;;;;;3.00;1.00;;;;;8.25;100.00;100430.25;4992257;28;45992;-75
2023/04/14 02:20:09;;;;;;;;;1.33;1.33;;;;;8.26;100.00;100437.41;5012293;28;45487;-74
2023/04/14 02:22:35;;;;;;;;;1.33;1.00;;;;;8.17;100.00;100422.22;5011218;28;45852;-75
2023/04/14 02:25:01;;;;;;;;;2.67;1.33;;;;;8.22;100.00;100427.06;4993228;28;48281;-74
2023/04/14 02:27:43;;;;;;;;;1.00;1.00;;;;;8.24;100.00;100425.84;4992933;28;45879;-75
2023/04/14 02:30:18;;;;;;;;;0.00;0.00;;;;;8.21;100.00;100428.97;5002150;28;45561;-76
2023/04/14 02:33:11;;;;;;;;;1.00;1.00;;;;;8.21;100.00;100428.97;4992668;28;45928;-77
2023/04/14 02:35:47;;;;;;;;;2.00;2.00;;;;;8.19;100.00;100425.59;4993114;28;47072;-75
2023/04/14 02:38:20;;;;;;;;;2.33;1.00;;;;;8.18;100.00;100421.19;5001071;28;45765;-77
2023/04/14 02:40:47;;;;;;;;;2.67;2.67;;;;;8.16;100.00;100411.50;4995209;28;45928;-76
2023/04/14 02:43:18;;;;;;;;;3.33;1.33;;;;;8.10;100.00;100414.00;5009348;28;45566;-76
2023/04/14 02:45:49;;;;;;;;;2.67;2.67;;;;;8.05;100.00;100415.63;5011593;28;45738;-77
2023/04/14 02:48:17;;;;;;;;;2.00;2.00;;;;;8.03;100.00;100404.09;5011305;28;45846;-76
2023/04/14 02:50:47;;;;;;;;;1.00;1.00;;;;;8.11;100.00;100404.75;5010931;28;45514;-76
2023/04/14 02:53:17;;;;;;;;;2.00;2.00;;;;;8.23;100.00;100409.66;5012541;28;45768;-76
2023/04/14 02:55:45;;;;;;;;;2.00;0.67;;;;;8.17;100.00;100394.91;5012703;28;45731;-76
2023/04/14 02:58:11;;;;;;;;;1.67;1.67;;;;;8.16;100.00;100403.28;4994386;28;45383;-76
2023/04/14 03:00:39;;;;;;;;;1.00;1.00;;;;;8.10;100.00;100394.88;5011957;28;45524;-75
2023/04/14 03:03:05;;;;;;;;;1.33;1.00;;;;;7.98;100.00;100371.06;5012249;28;45871;-76
2023/04/14 03:05:32;;;;;;;;;2.33;2.00;;;;;8.10;100.00;100385.84;5012672;28;45403;-74
2023/04/14 03:07:59;;;;;;;;;1.33;1.33;;;;;8.05;100.00;100391.88;5016238;28;45389;-75
2023/04/14 03:10:26;;;;;;;;;1.00;1.00;;;;;7.93;100.00;100377.97;5002853;28;46079;-77
2023/04/14 03:12:53;;;;;;;;;2.00;2.00;;;;;8.09;100.00;100389.63;5008366;28;45479;-76
2023/04/14 03:15:20;;;;;;;;;1.33;1.00;;;;;8.04;100.00;100368.38;5011484;28;46113;-76
2023/04/14 03:17:52;;;;;;;;;2.00;2.00;;;;;8.23;100.00;100380.47;5010685;28;45486;-77
2023/04/14 03:20:20;;;;;;;;;1.00;1.00;;;;;8.25;100.00;100374.78;5013008;28;45618;-77
2023/04/14 03:22:56;;;;;;;;;3.00;1.00;;;;;8.27;100.00;100370.78;5011610;28;46070;-76
2023/04/14 03:25:24;;;;;;;;;3.00;1.67;;;;;8.28;100.00;100366.19;5003372;28;46327;-75
2023/04/14 03:27:52;;;;;;;;;1.00;1.00;;;;;8.29;100.00;100371.44;5011581;28;45426;-76
2023/04/14 03:30:20;;;;;;;;;2.00;1.33;;;;;8.29;100.00;100370.59;5010747;28;45798;-75
2023/04/14 03:32:48;;;;;;;;;1.00;1.00;;;;;8.31;100.00;100369.34;4999837;28;45902;-75
2023/04/14 03:35:15;;;;;;;;;1.00;1.00;;;;;8.31;100.00;100369.34;5010088;28;45768;-75
2023/04/14 03:37:44;;;;;;;;;1.00;1.00;;;;;8.36;100.00;100370.63;5011263;28;45740;-75
2023/04/14 03:40:13;;;;;;;;;2.00;2.00;;;;;8.28;100.00;100364.28;5006824;28;45723;-75
2023/04/14 03:42:43;;;;;;;;;2.00;1.00;;;;;8.29;100.00;100371.44;5010314;28;45916;-76
2023/04/14 03:45:09;;;;;;;;;1.00;1.00;;;;;8.24;100.00;100363.00;5010413;28;45548;-77
2023/04/14 03:47:35;;;;;;;;;2.33;1.33;;;;;8.17;100.00;100362.13;5010161;28;45802;-75
2023/04/14 03:50:03;;;;;;;;;3.67;1.00;;;;;8.13;100.00;100358.13;5010554;28;45825;-74
2023/04/14 03:52:33;;;;;;;;;1.00;1.00;;;;;8.23;100.00;100374.13;5008888;28;46312;-74
2023/04/14 03:55:04;;;;;;;;;2.00;2.00;;;;;8.13;100.00;100349.94;5007785;28;45485;-76
2023/04/14 03:57:31;;;;;;;;;2.00;2.00;;;;;8.21;100.00;100374.34;4985723;28;47149;-76
2023/04/14 03:59:59;;;;;;;;;4.00;2.00;;;;;8.17;100.00;100367.59;5002695;28;45699;-76
2023/04/14 04:02:27;;;;;;;;;2.00;2.00;;;;;8.12;100.00;100364.63;5008469;28;46061;-76
2023/04/14 04:04:54;;;;;;;;;2.00;2.00;;;;;8.07;100.00;100364.41;5009812;28;45434;-75
2023/04/14 04:07:20;;;;;;;;;4.00;3.00;;;;;8.08;100.00;100366.94;4990595;28;45449;-75
2023/04/14 04:09:47;;;;;;;;;1.00;1.00;;;;;7.99;100.00;100356.38;5010408;28;45675;-77
2023/04/14 04:12:17;;;;;;;;;1.33;1.33;;;;;7.97;100.00;100361.19;5010908;28;45443;-76
2023/04/14 04:14:42;;;;;;;;;1.00;1.00;;;;;7.84;100.00;100337.38;4991476;28;48422;-78
2023/04/14 04:17:11;;;;;;;;;2.33;2.33;;;;;7.87;100.00;100342.44;5001167;28;45696;-80
2023/04/14 04:19:38;;;;;;;;;2.33;2.33;;;;;7.88;100.00;100355.06;5001570;28;45462;-76
2023/04/14 04:22:06;;;;;;;;;2.67;1.00;;;;;7.87;100.00;100359.66;4992404;28;46091;-75
2023/04/14 04:24:37;;;;;;;;;3.00;2.00;;;;;7.82;100.00;100356.69;5011103;28;45511;-76
2023/04/14 04:27:03;;;;;;;;;2.33;2.33;;;;;7.76;100.00;100352.88;4995909;28;45931;-75
2023/04/14 04:29:28;;;;;;;;;3.00;3.00;;;;;7.75;100.00;100353.94;5011014;28;45622;-76
2023/04/14 04:31:54;;;;;;;;;3.00;1.00;;;;;7.73;100.00;100350.53;5012934;28;45536;-76
2023/04/14 04:34:22;;;;;;;;;3.00;1.67;;;;;7.73;100.00;100355.16;5011823;28;45511;-76
2023/04/14 04:36:49;;;;;;;;;2.00;2.00;;;;;7.70;100.00;100342.75;5009785;28;45470;-74
2023/04/14 04:39:14;;;;;;;;;5.00;3.67;;;;;7.66;100.00;100336.00;5011707;28;45830;-75
2023/04/14 04:41:40;;;;;;;;;4.00;3.00;;;;;7.72;100.00;100337.91;5012180;28;45630;-74
2023/04/14 04:44:05;;;;;;;;;2.00;2.00;;;;;7.76;100.00;100330.19;5009522;28;47736;-75
2023/04/14 04:46:53;;;;;;;;;3.00;2.00;;;;;7.83;100.00;100333.81;5013141;28;45516;-76
2023/04/14 04:49:19;;;;;;;;;12.67;9.67;;;;;7.87;100.00;100328.78;5011553;28;45490;-80
2023/04/14 04:51:45;;;;;;;;;4.33;2.00;;;;;7.89;100.00;100330.28;5013207;28;45910;-77
2023/04/14 04:54:11;;;;;;;;;4.00;3.00;;;;;7.93;100.00;100327.97;5012197;28;45800;-78
2023/04/14 04:56:36;;;;;;;;;3.00;3.00;;;;;7.99;100.00;100320.88;5012341;28;45432;-77
2023/04/14 04:59:02;;;;;;;;;2.33;2.33;;;;;8.04;100.00;100318.34;5012649;28;45379;-74
2023/04/14 05:01:28;;;;;;;;;2.00;2.00;;;;;8.06;100.00;100308.09;5009654;28;45396;-74
2023/04/14 05:03:53;;;;;;;;;3.00;3.00;;;;;8.13;100.00;100311.69;4994682;28;47099;-75
2023/04/14 05:06:19;;;;;;;;;3.00;3.00;;;;;8.23;100.00;100316.75;5015277;28;45387;-76
2023/04/14 05:08:44;;;;;;;;;3.00;3.00;;;;;8.29;100.00;100321.41;4994637;28;45708;-75
2023/04/14 05:11:10;;;;;;;;;5.00;5.00;;;;;8.30;100.00;100306.72;5012665;28;45416;-75
2023/04/14 05:13:35;;;;;;;;;2.33;2.33;;;;;8.36;100.00;100311.34;5011632;28;45453;-74
2023/04/14 05:16:05;;;;;;;;;2.67;2.67;;;;;8.38;100.00;100308.41;5011314;28;45659;-75
2023/04/14 05:18:31;;;;;;;;;2.00;2.00;;;;;8.34;100.00;100286.13;5011869;28;45681;-75
2023/04/14 05:21:09;;;;;;;;;3.00;3.00;;;;;8.40;100.00;100287.22;5012190;28;45490;-79
2023/04/14 05:23:36;;;;;;;;;3.67;3.67;;;;;8.43;100.00;100284.06;5010552;28;45927;-74
2023/04/14 05:26:04;;;;;;;;;5.00;5.00;;;;;8.37;100.00;100284.84;5010325;28;45568;-74
2023/04/14 05:28:31;;;;;;;;;4.67;4.00;;;;;8.38;100.00;100287.38;5009652;28;45450;-75
2023/04/14 05:30:56;;;;;;;;;4.00;2.33;;;;;8.39;100.00;100280.06;5008436;28;45876;-75
2023/04/14 05:33:22;;;;;;;;;5.33;3.00;;;;;8.38;100.00;100273.72;5009270;28;46634;-74
2023/04/14 05:35:49;;;;;;;;;3.00;2.67;;;;;8.56;100.00;100286.00;4991673;28;46031;-76
2023/04/14 05:38:16;;;;;;;;;5.00;4.00;;;;;8.60;100.00;100279.91;5004074;28;45502;-74
2023/04/14 05:40:41;;;;;;;;;6.00;4.67;;;;;8.61;100.00;100281.59;5004059;28;45863;-73
2023/04/14 05:43:07;;;;;;;;;5.00;3.33;;;;;8.71;100.00;100285.81;5011452;28;45510;-73
2023/04/14 05:45:32;;;;;;;;;4.00;4.00;;;;;8.76;100.00;100266.91;5011582;28;45575;-76
2023/04/14 05:47:58;;;;;;;;;3.00;3.00;;;;;8.98;100.00;100284.81;5011561;28;45801;-76
2023/04/14 05:50:23;;;;;;;;;4.67;4.67;;;;;9.11;100.00;100275.75;5005051;28;46904;-76
2023/04/14 05:52:50;;;;;;;;;4.00;4.00;;;;;9.17;100.00;100268.59;5012056;28;45805;-77
2023/04/14 05:55:16;;;;;;;;;5.00;5.00;;;;;9.31;100.00;100278.47;4994543;28;45562;-76
2023/04/14 05:57:42;;;;;;;;;6.00;6.00;;;;;9.43;100.00;100267.72;5012199;28;45484;-76
2023/04/14 06:00:08;;;;;;;;;4.00;4.00;;;;;9.47;100.00;100257.19;5013092;28;45789;-76
2023/04/14 06:02:34;;;;;;;;;6.00;5.00;;;;;9.74;100.00;100268.91;5011645;28;46058;-74
2023/04/14 06:05:00;;;;;;;;;8.00;5.33;;;;;9.81;100.00;100263.41;5012816;28;45407;-75
2023/04/14 06:07:26;;;;;;;;;5.67;4.33;;;;;9.89;100.00;100266.75;5003675;28;45833;-73
2023/04/14 06:09:51;;;;;;;;;5.33;4.00;;;;;9.86;100.00;100250.72;5010707;28;45895;-75
2023/04/14 06:12:16;;;;;;;;;6.33;6.33;;;;;9.99;100.00;100263.56;5011110;28;46207;-75
2023/04/14 06:14:42;;;;;;;;;8.33;7.00;;;;;9.99;100.00;100255.31;5005434;28;45523;-74
2023/04/14 06:17:08;;;;;;;;;5.67;5.67;;;;;10.01;100.00;100255.94;4987024;28;45988;-75
2023/04/14 06:19:33;;;;;;;;;6.00;6.00;;;;;10.05;100.00;100243.50;5005826;28;45625;-75
2023/04/14 06:21:59;;;;;;;;;7.67;5.00;;;;;10.18;100.00;100249.97;4990703;28;47119;-75
2023/04/14 06:24:24;;;;;;;;;8.00;6.67;;;;;10.28;100.00;100242.13;5007769;28;45556;-74
2023/04/14 06:26:50;;;;;;;;;6.00;5.00;;;;;10.56;100.00;100265.59;5015029;28;45563;-75
2023/04/14 06:29:16;;;;;;;;;6.33;5.00;;;;;10.54;100.00;100265.00;4980942;28;46196;-74
2023/04/14 06:31:42;;;;;;;;;6.67;6.67;;;;;10.58;100.00;100252.50;5005499;28;45884;-77
2023/04/14 06:34:07;;;;;;;;;6.33;6.33;;;;;10.60;100.00;100251.22;5008804;28;45752;-74
2023/04/14 06:36:33;;;;;;;;;6.00;5.00;;;;;10.50;100.00;100253.63;5009499;28;46246;-74
2023/04/14 06:38:59;;;;;;;;;8.33;7.00;;;;;10.55;100.00;100251.06;5004197;28;45770;-77
2023/04/14 06:41:25;;;;;;;;;6.00;6.00;;;;;10.50;100.00;100244.56;5016733;28;45781;-77
2023/04/14 06:43:50;;;;;;;;;9.00;7.33;;;;;10.58;100.00;100245.16;5008133;28;45704;-74
2023/04/14 06:46:16;;;;;;;;;8.33;7.00;;;;;10.62;100.00;100250.19;5009940;28;46559;-80
2023/04/14 06:48:42;;;;;;;;;6.33;6.33;;;;;10.64;100.00;100235.16;4989428;28;45701;-77
2023/04/14 06:51:11;;;;;;;;;8.00;5.00;;;;;10.68;100.00;100228.19;5005425;28;46048;-77
2023/04/14 06:53:39;;;;;;;;;4.00;4.00;;;;;10.82;100.00;100219.84;5008153;28;45968;-78
2023/04/14 06:56:07;;;;;;;;;7.00;6.00;;;;;10.81;100.00;100202.56;5013757;28;45695;-76
2023/04/14 06:58:33;;;;;;;;;5.67;5.67;;;;;11.04;100.00;100220.31;5009323;28;45537;-76
2023/04/14 07:01:02;;;;;;;;;6.00;6.00;;;;;11.20;100.00;100221.63;5007290;28;47655;-79
2023/04/14 07:03:29;;;;;;;;;7.33;7.33;;;;;11.40;100.00;100213.19;5005756;28;46074;-76
2023/04/14 07:06:06;;;;;;;;;8.33;7.67;;;;;11.52;100.00;100213.28;4991763;28;45777;-77
2023/04/14 07:08:35;;;;;;;;;6.67;5.33;;;;;11.72;100.00;100227.63;5007488;28;45946;-78
2023/04/14 07:11:07;;;;;;;;;7.33;6.33;;;;;11.98;100.00;100231.16;5005390;28;45949;-78
2023/04/14 07:13:33;;;;;;;;;10.67;10.00;;;;;12.19;100.00;100216.91;5011483;28;45794;-78
2023/04/14 07:15:59;;;;;;;;;9.33;8.00;;;;;12.24;100.00;100209.88;4999384;28;45705;-77
2023/04/14 07:18:25;;;;;;;;;8.67;8.67;;;;;12.48;100.00;100224.53;5007306;28;45608;-76
2023/04/14 07:20:51;;;;;;;;;7.00;7.00;;;;;12.77;100.00;100209.06;5007676;28;45769;-76
2023/04/14 07:23:17;;;;;;;;;13.33;9.67;;;;;12.68;100.00;100193.97;5006927;28;45931;-76
2023/04/14 07:25:43;;;;;;;;;10.67;10.00;;;;;12.82;100.00;100213.84;5008388;28;45705;-76
2023/04/14 07:28:10;;;;;;;;;10.00;10.00;;;;;12.74;100.00;100201.28;5006480;28;45764;-76
2023/04/14 07:30:35;;;;;;;;;10.00;9.33;;;;;12.83;100.00;100201.75;4990628;28;47185;-76
2023/04/14 07:33:02;;;;;;;;;11.00;10.00;;;;;12.73;100.00;100190.50;5008958;28;45472;-74
2023/04/14 07:35:27;;;;;;;;;9.00;9.00;;;;;12.66;100.00;100196.09;5008866;28;45933;-78
2023/04/14 07:37:54;;;;;;;;;12.00;12.00;;;;;12.64;100.00;100198.28;5007456;28;46081;-76
2023/04/14 07:40:19;;;;;;;;;14.67;13.00;;;;;12.45;100.00;100184.56;4994509;28;48091;-78
2023/04/14 07:42:45;;;;;;;;;10.33;8.67;;;;;12.60;100.00;100188.81;5005911;28;45583;-77
2023/04/14 07:45:11;;;;;;;;;10.67;8.67;;;;;12.58;100.00;100174.47;5008591;28;45773;-77
2023/04/14 07:47:36;;;;;;;;;13.67;13.00;;;;;12.68;100.00;100167.28;5007408;28;45795;-77
2023/04/14 07:50:02;;;;;;;;;10.33;9.67;;;;;12.65;100.00;100167.78;5008231;28;46296;-77
2023/04/14 07:52:28;;;;;;;;;9.50;8.50;;;;;12.58;100.00;100163.47;5007721;28;45475;-73
2023/04/14 07:54:53;;;;;;;;;10.00;10.00;;;;;12.86;100.00;100174.59;4989230;28;45941;-76
2023/04/14 07:57:19;;;;;;;;;21.00;13.00;;;;;13.00;100.00;100175.22;5008335;28;45718;-76
2023/04/14 07:59:44;;;;;;;;;12.00;12.00;;;;;13.09;100.00;100167.44;5006713;28;48199;-78
2023/04/14 08:02:10;;;;;;;;;9.00;7.67;;;;;13.04;100.00;100146.13;4988382;28;45606;-76
2023/04/14 08:04:35;;;;;;;;;6.33;6.33;;;;;13.21;100.00;100150.91;5006865;28;45581;-77
2023/04/14 08:07:01;;;;;;;;;9.33;7.67;;;;;13.25;100.00;100166.69;5008422;28;45926;-76
2023/04/14 08:09:26;;;;;;;;;8.00;7.00;;;;;13.33;100.00;100159.16;5006284;28;46077;-76
2023/04/14 08:11:52;;;;;;;;;8.33;7.67;;;;;13.38;100.00;100156.53;5006500;28;46023;-76
2023/04/14 08:14:17;;;;;;;;;11.67;11.00;;;;;13.07;100.00;100123.63;5009137;28;45740;-78
2023/04/14 08:16:43;;;;;;;;;8.00;7.67;;;;;12.98;100.00;100155.34;5008893;28;45659;-78
2023/04/14 08:19:09;;;;;;;;;7.67;6.67;;;;;13.08;100.00;100154.72;5003267;28;46329;-78
2023/04/14 08:21:35;;;;;;;;;9.33;9.33;;;;;12.98;100.00;100165.50;5007876;28;45945;-78
2023/04/14 08:24:00;;;;;;;;;7.00;7.00;;;;;12.86;100.00;100141.59;5006275;28;45700;-77
2023/04/14 08:26:29;;;;;;;;;9.00;7.67;;;;;12.73;100.00;100158.31;5008841;28;45782;-75
2023/04/14 08:28:55;;;;;;;;;6.33;5.67;;;;;12.47;100.00;100149.44;5008890;28;45809;-77
2023/04/14 08:31:22;;;;;;;;;7.67;7.67;;;;;12.25;100.00;100134.56;5007290;28;45680;-75
2023/04/14 08:33:48;;;;;;;;;9.33;9.33;;;;;12.33;100.00;100162.53;5007435;28;45576;-79
2023/04/14 08:36:13;;;;;;;;;8.33;8.33;;;;;12.14;100.00;100145.28;5004180;28;45932;-78
2023/04/14 08:38:38;;;;;;;;;12.00;10.33;;;;;12.31;100.00;100133.63;5010531;28;45978;-78
2023/04/14 08:41:07;;;;;;;;;7.33;6.00;;;;;12.44;100.00;100125.16;5007835;28;46054;-79
2023/04/14 08:43:33;;;;;;;;;5.67;5.67;;;;;12.73;100.00;100143.75;4989884;28;45725;-79
2023/04/14 08:46:00;;;;;;;;;7.00;6.00;;;;;12.63;100.00;100130.56;5004801;28;46235;-77
2023/04/14 08:48:30;;;;;;;;;4.00;4.00;;;;;12.59;100.00;100134.84;5014411;28;46237;-77
2023/04/14 08:51:00;;;;;;;;;4.00;4.00;;;;;12.60;100.00;100137.38;5008134;28;45518;-76
2023/04/14 08:53:28;;;;;;;;;5.67;4.00;;;;;12.50;100.00;100129.72;5008584;28;45625;-80
2023/04/14 08:56:01;;;;;;;;;3.33;3.33;;;;;12.13;100.00;100079.56;4989791;28;45767;-81
2023/04/14 08:58:28;;;;;;;;;4.00;4.00;;;;;12.25;100.00;100115.31;5006276;28;45492;-79
2023/04/14 09:00:54;;;;;;;;;8.67;5.00;;;;;12.15;100.00;100105.72;5006206;28;45800;-79
2023/04/14 09:03:20;;;;;;;;;4.00;4.00;;;;;12.24;100.00;100116.38;5006163;28;46273;-79
2023/04/14 09:05:46;;;;;;;;;4.00;4.00;;;;;12.06;100.00;100093.38;4986459;28;45537;-81
2023/04/14 09:08:12;;;;;;;;;2.00;2.00;;;;;12.24;100.00;100119.13;5007092;28;45847;-81
2023/04/14 09:10:39;;;;;;;;;4.00;3.33;;;;;12.19;100.00;100120.69;5009400;28;46074;-83
2023/04/14 09:13:07;;;;;;;;;5.00;4.67;;;;;12.18;100.00;100096.16;4992588;28;45822;-82
2023/04/14 09:15:34;;;;;;;;;3.67;3.67;;;;;12.19;100.00;100095.94;4993490;28;46917;-80
2023/04/14 09:18:00;;;;;;;;;7.00;5.00;;;;;12.27;100.00;100111.25;5010988;28;45795;-81
2023/04/14 09:20:27;;;;;;;;;5.00;5.00;;;;;12.28;100.00;100084.63;4992475;28;45965;-79
2023/04/14 09:22:52;;;;;;;;;6.00;3.33;;;;;12.37;100.00;100083.19;4991395;28;45792;-79
2023/04/14 09:25:19;;;;;;;;;4.00;4.00;;;;;12.59;100.00;100096.34;5008013;28;47369;-79
2023/04/14 09:27:46;;;;;;;;;5.00;3.67;;;;;12.53;100.00;100085.22;5018874;28;47361;-79
2023/04/14 09:30:12;;;;;;;;;6.00;6.00;;;;;12.51;100.00;100081.91;5009494;28;45685;-80
2023/04/14 09:32:39;;;;;;;;;11.33;7.33;;;;;12.50;100.00;100090.34;4992483;28;45692;-80
2023/04/14 09:35:05;;;;;;;;;5.67;5.67;;;;;12.42;100.00;100074.22;4992623;28;46227;-80
2023/04/14 09:37:45;;;;;;;;;2.33;2.33;;;;;12.33;100.00;100076.47;5011116;28;45718;-80
2023/04/14 09:40:26;;;;;;;;;5.33;5.00;;;;;12.36;100.00;100082.34;5006808;28;45641;-81
2023/04/14 09:42:53;;;;;;;;;3.33;2.00;;;;;12.07;100.00;100051.09;5006624;28;45900;-79
2023/04/14 09:45:18;;;;;;;;;6.67;5.00;;;;;12.16;100.00;100079.91;5012016;28;45953;-80
2023/04/14 09:47:44;;;;;;;;;3.00;3.00;;;;;12.14;100.00;100081.22;5021904;28;46487;-78
2023/04/14 09:50:10;;;;;;;;;11.67;4.67;;;;;12.19;100.00;100082.19;4984440;28;45735;-80
2023/04/14 09:52:47;;;;;;;;;4.00;4.00;;;;;12.07;100.00;100044.78;5012565;28;45368;-79
2023/04/14 09:55:14;;;;;;;;;6.33;5.33;;;;;12.23;100.00;100060.59;5011935;28;45492;-79
2023/04/14 09:57:46;;;;;;;;;8.00;4.67;;;;;12.29;100.00;100067.03;5012805;28;45387;-80
2023/04/14 10:00:14;;;;;;;;;6.00;4.00;;;;;12.21;100.00;100073.72;5010940;28;45798;-81
2023/04/14 10:02:50;;;;;;;;;4.00;3.00;;;;;12.12;100.00;100059.47;5013096;28;45598;-80
2023/04/14 10:05:18;;;;;;;;;4.67;3.00;;;;;12.14;100.00;100073.81;5010908;28;45919;-80
2023/04/14 10:07:45;;;;;;;;;3.00;3.00;;;;;11.98;100.00;100058.00;5008814;28;45822;-79
2023/04/14 10:10:12;;;;;;;;;5.00;2.67;;;;;12.05;100.00;100052.41;5011207;28;45827;-80
2023/04/14 10:12:45;;;;;;;;;6.67;4.00;;;;;11.97;100.00;100061.81;5012574;28;45974;-81
2023/04/14 10:15:13;;;;;;;;;4.00;3.00;;;;;12.03;100.00;100058.13;5029403;28;45368;-84
2023/04/14 10:17:39;;;;;;;;;3.00;3.00;;;;;12.08;100.00;100066.53;5018089;28;45633;-81
2023/04/14 10:20:06;;;;;;;;;3.67;2.00;;;;;12.13;100.00;100058.41;5012229;28;45430;-81
2023/04/14 10:22:32;;;;;;;;;2.33;2.00;;;;;11.81;100.00;100020.19;5011101;28;45895;-81
2023/04/14 10:24:58;;;;;;;;;3.33;3.00;;;;;12.01;100.00;100058.38;5013140;28;45870;-80
2023/04/14 10:27:26;;;;;;;;;4.00;2.00;;;;;12.03;100.00;100055.38;5017827;28;46597;-80
2023/04/14 10:29:52;;;;;;;;;3.00;1.67;;;;;11.86;100.00;100033.22;5016878;28;45721;-81
2023/04/14 10:32:20;;;;;;;;;3.00;3.00;;;;;11.90;100.00;100006.09;5011958;28;45584;-82
2023/04/14 10:35:16;;;;;;;;;3.33;3.33;;;;;12.12;100.00;100045.72;5015819;28;45786;-82
2023/04/14 10:37:52;;;;;;;;;3.33;3.33;;;;;12.16;100.00;100038.69;4997374;28;47264;-79
2023/04/14 10:40:24;;;;;;;;;4.00;3.00;;;;;12.17;100.00;100021.13;5012555;28;45528;-86
2023/04/14 10:42:51;;;;;;;;;3.33;2.33;;;;;12.26;100.00;100024.38;5008462;28;45621;-82
2023/04/14 10:45:17;;;;;;;;;1.00;1.00;;;;;12.22;100.00;100036.91;5009471;28;46023;-81
2023/04/14 10:47:47;;;;;;;;;2.33;2.00;;;;;12.15;100.00;100020.50;5007783;28;47068;-79
2023/04/14 10:50:21;;;;;;;;;2.00;1.00;;;;;12.30;100.00;100030.22;5021711;28;45435;-81
2023/04/14 10:52:57;;;;;;;;;2.00;2.00;;;;;12.27;100.00;100011.44;5011638;28;46007;-81
2023/04/14 10:55:29;;;;;;;;;2.00;2.00;;;;;12.26;100.00;100021.63;5009426;28;45903;-82
2023/04/14 10:58:06;;;;;;;;;3.67;3.67;;;;;12.31;100.00;100018.16;5010689;28;45511;-80
2023/04/14 11:00:37;;;;;;;;;3.00;2.00;;;;;12.38;100.00;100015.25;4991909;28;45902;-80
2023/04/14 11:03:10;;;;;;;;;4.00;4.00;;;;;12.48;100.00;100010.84;5008521;28;45870;-81
2023/04/14 11:05:44;;;;;;;;;6.00;2.67;;;;;12.49;100.00;100003.44;4989134;28;46037;-79
2023/04/14 11:08:23;;;;;;;;;2.67;2.67;;;;;12.48;100.00;99979.75;4999265;28;45575;-79
2023/04/14 11:10:52;;;;;;;;;2.33;1.33;;;;;12.46;100.00;99988.25;5005275;28;45671;-77
2023/04/14 11:13:18;;;;;;;;;7.00;3.00;;;;;12.41;100.00;99979.03;5006121;28;46050;-78
2023/04/14 11:15:43;;;;;;;;;4.33;2.00;;;;;12.52;100.00;99976.28;5008899;28;45901;-74
2023/04/14 11:18:31;;;;;;;;;3.33;3.33;;;;;12.66;100.00;99978.78;5010855;28;45974;-81
2023/04/14 11:21:07;;;;;;;;;5.00;2.67;;;;;12.78;100.00;99968.56;5006920;28;45553;-80
2023/04/14 11:23:37;;;;;;;;;4.00;2.00;;;;;12.83;100.00;99967.84;5001622;28;45947;-79
2023/04/14 11:26:12;;;;;;;;;5.33;4.00;;;;;12.84;100.00;99962.13;4990146;28;46016;-80